This is the latest recevied weather packets stored in our database for station/object W8BS. If no packets are shown the sender has not sent any weather packets the latest 1 day(s).
| Time | Temp. | Humidity | Pressure | Rain* | Wind** | Luminosity | Snow |
|---|---|---|---|---|---|---|---|
| 1777991929 | 20° C | 53% | 1012.6 hPa | 0 mm | 0.89 m/s, 189° | 659 W/m² | - |
| 1777991627 | 20° C | 53% | 1012.5 hPa | 0 mm | 3.13 m/s, 255° | 610 W/m² | - |
| 1777991324 | 20.56° C | 52% | 1012.5 hPa | 0 mm | 1.34 m/s, 228° | 665 W/m² | - |
| 1777991021 | 21.11° C | 52% | 1012.6 hPa | 0 mm | 3.13 m/s, 284° | 671 W/m² | - |
| 1777990718 | 20° C | 53% | 1012.6 hPa | 0 mm | 0.89 m/s, 177° | 623 W/m² | - |
| 1777990416 | 20.56° C | 53% | 1012.6 hPa | 0 mm | 2.24 m/s, 219° | 622 W/m² | - |
| 1777990112 | 20° C | 52% | 1012.6 hPa | 0 mm | 3.13 m/s, 210° | 657 W/m² | - |
| 1777989809 | 20° C | 52% | 1012.6 hPa | 0 mm | 1.34 m/s, 190° | 668 W/m² | - |
| 1777989506 | 20° C | 53% | 1012.6 hPa | 0 mm | 1.34 m/s, 222° | 617 W/m² | - |
| 1777989202 | 20.56° C | 53% | 1012.6 hPa | 0 mm | 1.79 m/s, 255° | 717 W/m² | - |
| 1777988898 | 20° C | 53% | 1012.8 hPa | 0 mm | 1.79 m/s, 209° | 576 W/m² | - |
| 1777988595 | 19.44° C | 54% | 1012.7 hPa | 0 mm | 2.24 m/s, 230° | 544 W/m² | - |
| 1777988292 | 20° C | 53% | 1012.8 hPa | 0 mm | 3.13 m/s, 250° | 152 W/m² | - |
| 1777987989 | 20° C | 55% | 1012.4 hPa | 0 mm | 2.24 m/s, 161° | 541 W/m² | - |
| 1777987684 | 20° C | 53% | 1012.6 hPa | 0 mm | 2.68 m/s, 255° | 472 W/m² | - |
| 1777987381 | 20° C | 54% | 1012.7 hPa | 0 mm | 1.34 m/s, 213° | 431 W/m² | - |
| 1777987079 | 19.44° C | 54% | 1012.6 hPa | 0 mm | 1.34 m/s, 252° | 408 W/m² | - |
| 1777986776 | 19.44° C | 54% | 1012.7 hPa | 0 mm | 3.13 m/s, 233° | 347 W/m² | - |
| 1777986474 | 19.44° C | 55% | 1012.5 hPa | 0 mm | 1.79 m/s, 178° | 370 W/m² | - |
| 1777986172 | 19.44° C | 55% | 1012.4 hPa | 0 mm | 1.79 m/s, 178° | 335 W/m² | - |
| 1777985869 | 18.89° C | 56% | 1012.4 hPa | 0 mm | 1.79 m/s, 198° | 331 W/m² | - |
| 1777985566 | 18.89° C | 56% | 1012.5 hPa | 0 mm | 0.89 m/s, 230° | 290 W/m² | - |
| 1777985262 | 18.89° C | 56% | 1012.3 hPa | 0 mm | 0.89 m/s, 179° | 267 W/m² | - |
| 1777984959 | 18.89° C | 57% | 1012.4 hPa | 0 mm | 1.34 m/s, 193° | 283 W/m² | - |
| 1777984654 | 18.33° C | 58% | 1012.8 hPa | 0 mm | 1.79 m/s, 225° | 264 W/m² | - |
* Rain latest hour (hover to see other rain measurements)
** Current wind speed in m/s (hover to see current wind gust speed)